Time;durP1;ratioP1;P1;durP2;ratioP2;P2;SDS_P1;SDS_P2;PMS_P1;PMS_P2;Temp;Humidity;BMP_temperature;BMP_pressure;BME280_temperature;BME280_humidity;BME280_pressure;Samples;Min_cycle;Max_cycle;Signal;HPM_P1;HPM_P2
2022/01/21 00:00:42;;;;;;;19.27;3.00;;;;;;;24.99;31.45;95229.88;4994153;28;20041;-40
2022/01/21 00:03:09;;;;;;;21.63;3.00;;;;;;;25.03;31.48;95236.25;4998193;28;20049;-40
2022/01/21 00:05:46;;;;;;;20.35;3.42;;;;;;;24.97;31.66;95235.47;4991534;28;20408;-40
2022/01/21 00:08:12;;;;;;;14.70;2.80;;;;;;;25.00;31.41;95231.50;5028592;28;20049;-40
2022/01/21 00:10:37;;;;;;;20.23;3.05;;;;;;;25.00;31.37;95236.00;4968772;28;20047;-40
2022/01/21 00:13:13;;;;;;;18.48;3.17;;;;;;;25.06;31.18;95234.94;4995661;28;20034;-40
2022/01/21 00:15:38;;;;;;;19.58;3.17;;;;;;;25.02;31.02;95231.19;4981970;28;20040;-40
2022/01/21 00:18:04;;;;;;;16.70;3.55;;;;;;;24.97;31.51;95230.16;4977192;28;20030;-40
2022/01/21 00:31:31;;;;;;;22.00;3.38;;;;;;;25.01;31.18;95232.28;4978000;28;20140;-40
2022/01/21 00:33:57;;;;;;;21.77;2.70;;;;;;;24.94;31.37;95228.03;4995593;28;20045;-40
2022/01/21 00:36:23;;;;;;;16.90;3.03;;;;;;;24.92;31.25;95222.19;4971809;28;20038;-40
2022/01/21 00:38:53;;;;;;;17.30;3.00;;;;;;;24.93;31.73;95229.09;4988005;28;20038;-40
2022/01/21 00:41:34;;;;;;;18.20;2.65;;;;;;;24.98;31.45;95231.75;4979078;28;20046;-40
2022/01/21 00:44:01;;;;;;;16.63;2.80;;;;;;;25.00;31.37;95230.66;4980279;28;20041;-40
2022/01/21 00:46:30;;;;;;;20.08;2.78;;;;;;;24.99;31.36;95227.22;4990173;28;20034;-40
2022/01/21 00:48:55;;;;;;;22.83;2.90;;;;;;;24.98;31.23;95221.09;4996757;28;20018;-40
2022/01/21 00:51:23;;;;;;;14.32;2.50;;;;;;;24.98;31.07;95228.31;4996159;28;20041;-40
2022/01/21 00:53:49;;;;;;;18.25;2.92;;;;;;;24.98;31.14;95217.66;4987815;28;20042;-40
2022/01/21 00:56:25;;;;;;;17.40;2.78;;;;;;;24.93;31.48;95221.09;4986809;28;20049;-40
2022/01/21 00:58:50;;;;;;;13.50;2.45;;;;;;;24.93;31.40;95222.97;5019536;28;20030;-40
2022/01/21 01:01:16;;;;;;;16.85;2.45;;;;;;;24.96;31.39;95228.56;5019737;28;20045;-40
2022/01/21 01:03:41;;;;;;;17.35;2.70;;;;;;;24.94;31.35;95225.38;4985707;28;20069;-40
2022/01/21 01:06:07;;;;;;;14.88;2.70;;;;;;;24.94;31.42;95219.22;4988170;28;20065;-40
2022/01/21 01:08:32;;;;;;;17.67;3.20;;;;;;;24.94;31.30;95221.91;4987946;28;20034;-40
2022/01/21 01:21:42;;;;;;;16.95;2.50;;;;;;;24.92;31.34;95208.88;4987355;28;20045;-40
2022/01/21 01:29:18;;;;;;;11.75;2.95;;;;;;;24.91;31.21;95211.81;4988600;28;20081;-40
2022/01/21 01:31:43;;;;;;;13.23;2.40;;;;;;;24.89;31.25;95217.38;4998733;28;20057;-40
2022/01/21 01:34:16;;;;;;;14.10;2.55;;;;;;;24.90;31.51;95213.69;4977126;28;20033;-40
2022/01/21 01:36:47;;;;;;;13.15;2.30;;;;;;;24.87;31.18;95213.41;4985065;28;20042;-40
2022/01/21 01:39:58;;;;;;;13.82;2.17;;;;;;;24.88;31.15;95212.34;4989469;28;20030;-40
2022/01/21 01:50:28;;;;;;;7.72;1.83;;;;;;;24.91;30.77;95217.13;4987431;28;20114;-40
2022/01/21 01:52:56;;;;;;;9.10;2.50;;;;;;;24.86;31.50;95209.94;4986166;28;20034;-40
2022/01/21 01:55:26;;;;;;;13.13;2.45;;;;;;;24.92;31.08;95213.38;4989919;28;20041;-40
2022/01/21 01:57:55;;;;;;;14.55;2.25;;;;;;;24.90;31.15;95211.03;4990785;28;20034;-40
2022/01/21 02:00:22;;;;;;;12.65;2.45;;;;;;;24.91;31.26;95211.81;5004741;28;20034;-40
2022/01/21 02:03:01;;;;;;;12.05;2.47;;;;;;;24.92;31.13;95203.56;4990948;28;20046;-40
2022/01/21 02:05:27;;;;;;;12.80;2.20;;;;;;;24.93;31.01;95215.00;4985134;28;20050;-40
2022/01/21 02:07:52;;;;;;;11.77;2.22;;;;;;;24.92;31.05;95208.88;4987013;28;20069;-40
2022/01/21 02:10:20;;;;;;;12.18;2.85;;;;;;;24.90;30.99;95207.53;5002563;28;20034;-40
2022/01/21 02:12:45;;;;;;;11.43;2.20;;;;;;;24.90;31.13;95215.53;4969505;28;20088;-41
2022/01/21 02:15:11;;;;;;;9.30;2.15;;;;;;;24.88;31.11;95215.78;4985839;28;20038;-41
2022/01/21 02:22:52;;;;;;;13.50;2.30;;;;;;;24.87;30.94;95211.53;4986774;28;20045;-41
2022/01/21 02:25:19;;;;;;;7.95;1.80;;;;;;;24.83;31.18;95213.16;4959058;28;20037;-41
2022/01/21 02:27:48;;;;;;;10.40;2.60;;;;;;;24.84;31.02;95209.41;4987076;28;20125;-41
2022/01/21 02:30:26;;;;;;;10.13;2.25;;;;;;;24.89;30.79;95204.09;4995249;28;20022;-41
2022/01/21 02:32:55;;;;;;;8.55;2.22;;;;;;;24.87;31.09;95210.75;5005681;28;20069;-41
2022/01/21 02:35:21;;;;;;;12.93;2.00;;;;;;;24.90;31.37;95205.69;4987895;28;20041;-40
2022/01/21 02:37:49;;;;;;;11.50;2.00;;;;;;;24.92;30.97;95211.53;5018814;28;20046;-41
2022/01/21 02:40:15;;;;;;;6.75;1.65;;;;;;;24.85;31.17;95211.00;4994566;28;20037;-41
2022/01/21 02:42:41;;;;;;;9.20;1.80;;;;;;;24.83;31.17;95207.00;5017127;28;20041;-40
2022/01/21 02:45:07;;;;;;;7.13;1.70;;;;;;;24.87;31.09;95208.09;4993015;28;20144;-41
2022/01/21 02:47:40;;;;;;;8.88;1.83;;;;;;;24.84;31.11;95211.28;5017958;28;20058;-40
2022/01/21 02:50:05;;;;;;;9.95;1.83;;;;;;;24.83;31.08;95204.34;4979383;28;20121;-41
2022/01/21 02:52:40;;;;;;;7.38;1.60;;;;;;;24.83;31.12;95207.81;4988076;28;20046;-41
2022/01/21 02:55:07;;;;;;;7.95;1.58;;;;;;;24.82;31.31;95202.78;4994215;28;20046;-41
2022/01/21 02:57:33;;;;;;;8.57;1.70;;;;;;;24.83;31.02;95202.50;4969332;28;20050;-41
2022/01/21 02:59:58;;;;;;;8.73;2.08;;;;;;;24.85;30.81;95203.03;4976725;28;20037;-41
2022/01/21 03:02:24;;;;;;;7.03;1.80;;;;;;;24.88;30.92;95199.03;4999254;28;20030;-41
2022/01/21 03:05:13;;;;;;;7.97;1.83;;;;;;;24.87;30.98;95198.25;4969257;28;20070;-41
2022/01/21 03:07:40;;;;;;;7.05;1.40;;;;;;;24.86;31.04;95201.94;4985540;28;20039;-41
2022/01/21 03:10:08;;;;;;;8.13;1.90;;;;;;;24.87;30.92;95202.78;4987871;28;20113;-41
2022/01/21 03:12:36;;;;;;;6.43;1.80;;;;;;;24.86;30.94;95199.28;4969525;28;20114;-41
2022/01/21 03:15:02;;;;;;;6.80;1.50;;;;;;;24.86;30.87;95196.63;5005039;28;20034;-41
2022/01/21 03:17:30;;;;;;;6.38;1.55;;;;;;;24.86;31.07;95196.63;4987035;28;20034;-41
2022/01/21 03:20:10;;;;;;;7.78;1.63;;;;;;;24.83;31.21;95186.53;5017760;28;20116;-41
2022/01/21 03:22:36;;;;;;;9.68;1.88;;;;;;;24.86;30.85;95187.88;5018531;28;20066;-43
2022/01/21 03:25:04;;;;;;;7.55;1.70;;;;;;;24.82;31.07;95192.13;4949776;28;20054;-41
2022/01/21 03:27:31;;;;;;;7.55;1.77;;;;;;;24.82;31.14;95182.28;5003003;28;20037;-41
2022/01/21 03:29:58;;;;;;;4.93;1.60;;;;;;;24.81;30.83;95194.00;4996810;28;20038;-41
2022/01/21 03:32:26;;;;;;;5.50;1.63;;;;;;;24.81;30.89;95188.69;5022890;28;20121;-41
2022/01/21 03:34:57;;;;;;;8.18;1.70;;;;;;;24.84;30.97;95193.44;4995458;28;20132;-41
2022/01/21 03:37:23;;;;;;;8.27;1.63;;;;;;;24.83;30.86;95193.72;5005190;28;20061;-41
2022/01/21 03:39:51;;;;;;;6.00;1.50;;;;;;;24.83;31.27;95202.50;4996620;28;20041;-42
2022/01/21 03:42:16;;;;;;;8.57;1.83;;;;;;;24.85;31.02;95205.69;4992982;28;20041;-41
2022/01/21 03:44:44;;;;;;;8.93;1.55;;;;;;;24.84;30.94;95204.09;4990473;28;20105;-41
2022/01/21 03:47:09;;;;;;;9.15;1.80;;;;;;;24.81;30.87;95207.31;4988312;28;20086;-40
2022/01/21 03:49:40;;;;;;;6.70;1.58;;;;;;;24.84;31.26;95211.28;4971586;28;20033;-39
2022/01/21 03:52:15;;;;;;;4.88;1.55;;;;;;;24.83;31.10;95207.00;4988650;28;20034;-39
2022/01/21 03:54:43;;;;;;;6.97;1.73;;;;;;;24.85;30.92;95202.25;4995118;28;20065;-40
2022/01/21 03:57:11;;;;;;;6.25;1.52;;;;;;;24.82;30.94;95208.88;4989349;28;20088;-39
2022/01/21 03:59:36;;;;;;;4.35;1.15;;;;;;;24.81;31.12;95209.97;4991415;28;20034;-40
2022/01/21 04:02:05;;;;;;;3.70;1.60;;;;;;;24.83;30.79;95215.00;4971623;28;20054;-39
2022/01/21 04:04:32;;;;;;;6.55;1.33;;;;;;;24.84;30.61;95211.28;4985925;28;20035;-39
2022/01/21 04:07:07;;;;;;;7.10;1.33;;;;;;;24.81;31.08;95204.63;4985637;28;20040;-39
2022/01/21 04:09:33;;;;;;;7.90;1.55;;;;;;;24.86;30.74;95212.59;4991072;28;20033;-39
2022/01/21 04:11:59;;;;;;;4.60;1.40;;;;;;;24.82;30.95;95211.53;4978088;28;20034;-40
2022/01/21 04:14:26;;;;;;;4.65;1.15;;;;;;;24.82;30.86;95211.53;4989657;28;20049;-40
2022/01/21 04:16:52;;;;;;;5.00;1.45;;;;;;;24.79;31.04;95209.44;4987931;28;20042;-39
2022/01/21 04:19:17;;;;;;;5.57;1.50;;;;;;;24.83;30.73;95210.50;4988573;28;20040;-39
2022/01/21 04:21:43;;;;;;;5.43;1.70;;;;;;;24.82;30.69;95203.56;4995701;28;20069;-40
2022/01/21 04:24:17;;;;;;;5.85;1.30;;;;;;;24.84;30.87;95196.09;5021258;28;20034;-40
2022/01/21 04:26:43;;;;;;;4.57;1.17;;;;;;;24.84;30.81;95198.75;4994667;28;20042;-39
2022/01/21 04:29:08;;;;;;;4.63;1.30;;;;;;;24.83;30.84;95207.81;4989010;28;20029;-40
2022/01/21 04:31:34;;;;;;;4.80;1.35;;;;;;;24.81;31.02;95206.47;4988293;28;20039;-40
2022/01/21 04:33:59;;;;;;;6.30;1.27;;;;;;;24.82;30.96;95202.78;4987216;28;20126;-40
2022/01/21 04:36:25;;;;;;;4.30;1.10;;;;;;;24.82;30.71;95203.56;4969678;28;20058;-39
2022/01/21 04:38:54;;;;;;;4.30;1.27;;;;;;;24.79;30.88;95201.44;4987598;28;20030;-40
2022/01/21 04:41:39;;;;;;;4.85;1.45;;;;;;;24.81;30.69;95206.47;4994861;28;20030;-40
2022/01/21 04:49:48;;;;;;;5.25;1.60;;;;;;;24.81;30.90;95209.13;4972485;28;20050;-40
2022/01/21 04:52:16;;;;;;;4.55;1.20;;;;;;;24.81;30.80;95207.31;4994556;28;20076;-39
2022/01/21 04:54:42;;;;;;;4.85;1.40;;;;;;;24.81;30.69;95201.97;5003015;28;20045;-39
2022/01/21 04:57:10;;;;;;;4.18;1.23;;;;;;;24.77;30.93;95203.59;4988576;28;20061;-40
2022/01/21 04:59:37;;;;;;;5.70;1.40;;;;;;;24.77;30.86;95199.06;4988754;28;20037;-41
2022/01/21 05:02:18;;;;;;;4.15;1.20;;;;;;;24.83;30.57;95209.66;4986531;28;20038;-40
2022/01/21 05:04:43;;;;;;;5.45;1.30;;;;;;;24.80;30.76;95213.66;4982635;28;20044;-39
2022/01/21 05:07:13;;;;;;;4.22;1.30;;;;;;;24.83;30.72;95210.50;4970648;28;20038;-39
2022/01/21 05:09:41;;;;;;;4.40;1.33;;;;;;;24.82;30.80;95221.38;4986158;28;20045;-39
2022/01/21 05:12:10;;;;;;;6.72;1.50;;;;;;;24.77;30.96;95208.91;4996170;28;20132;-40
2022/01/21 05:17:28;;;;;;;4.47;1.23;;;;;;;24.79;30.90;95228.06;4984542;28;20082;-40
2022/01/21 05:19:56;;;;;;;3.50;1.30;;;;;;;24.81;30.86;95227.75;4978971;28;20173;-39
2022/01/21 05:22:24;;;;;;;4.32;1.40;;;;;;;24.76;30.59;95226.69;4984762;28;20084;-39
2022/01/21 05:24:49;;;;;;;5.35;1.38;;;;;;;24.82;30.76;95227.50;4965032;28;20073;-39
2022/01/21 05:27:20;;;;;;;3.70;1.30;;;;;;;24.85;30.62;95223.53;4982322;28;20038;-39
2022/01/21 05:29:53;;;;;;;4.82;1.50;;;;;;;24.75;30.65;95225.13;4984537;28;20039;-39
2022/01/21 05:35:51;;;;;;;3.95;1.23;;;;;;;24.78;30.78;95231.75;4983481;28;20142;-40
2022/01/21 05:38:17;;;;;;;5.60;1.30;;;;;;;24.83;30.79;95231.78;4968448;28;20077;-40
2022/01/21 05:40:46;;;;;;;5.38;1.30;;;;;;;24.78;30.79;95231.75;4978947;28;20152;-40
2022/01/21 05:43:11;;;;;;;5.45;1.23;;;;;;;24.82;30.14;95224.06;4964079;28;20070;-39
2022/01/21 05:48:21;;;;;;;6.63;1.23;;;;;;;24.82;30.39;95230.16;4983135;28;20073;-39
2022/01/21 05:50:46;;;;;;;4.38;1.02;;;;;;;24.74;30.49;95238.69;4967130;28;20117;-39
2022/01/21 05:53:12;;;;;;;3.78;1.08;;;;;;;24.74;30.76;95239.47;4951187;28;20049;-40
2022/01/21 05:55:41;;;;;;;3.83;1.10;;;;;;;24.77;30.63;95235.50;5002970;28;20038;-40
2022/01/21 05:58:09;;;;;;;8.02;1.40;;;;;;;24.76;30.43;95239.22;4985389;28;20067;-39
2022/01/21 06:00:38;;;;;;;4.03;1.42;;;;;;;24.81;30.32;95239.22;4991872;28;20041;-40
2022/01/21 06:03:09;;;;;;;3.88;1.10;;;;;;;24.80;29.98;95226.97;4987359;28;20106;-40
2022/01/21 06:05:36;;;;;;;8.15;1.58;;;;;;;24.83;29.51;95234.44;4984702;28;20050;-40
2022/01/21 06:08:04;;;;;;;6.55;1.58;;;;;;;24.79;29.42;95241.34;4974384;28;20084;-40
2022/01/21 06:10:30;;;;;;;4.50;1.05;;;;;;;24.82;29.24;95232.81;4983315;28;20042;-40
2022/01/21 06:13:00;;;;;;;6.45;1.50;;;;;;;24.83;29.41;95249.56;4989850;28;20139;-40
2022/01/21 06:15:28;;;;;;;;;;;;;;;25.34;28.80;95246.88;4991458;28;20034;-40
2022/01/21 06:18:04;;;;;;;5.50;1.23;;;;;;;24.97;28.96;95240.78;4986362;28;19918;-40
2022/01/21 06:20:31;;;;;;;6.10;1.33;;;;;;;24.91;28.91;95239.19;4976725;28;20058;-40
2022/01/21 06:23:07;;;;;;;5.07;1.20;;;;;;;24.87;28.96;95254.09;4988564;28;20034;-40
2022/01/21 06:25:33;;;;;;;7.35;1.10;;;;;;;24.89;28.84;95262.63;4980761;28;20043;-40
2022/01/21 06:27:58;;;;;;;14.30;2.25;;;;;;;24.88;30.55;95263.66;4965393;28;20058;-40
2022/01/21 06:30:35;;;;;;;14.52;1.77;;;;;;;24.89;30.81;95261.81;4965545;28;20038;-40
2022/01/21 06:33:09;;;;;;;13.27;1.60;;;;;;;24.85;29.82;95268.75;4983670;28;20038;-40
2022/01/21 06:35:37;;;;;;;9.43;1.50;;;;;;;24.86;29.95;95267.66;4984436;28;20032;-40
2022/01/21 06:38:03;;;;;;;11.73;1.77;;;;;;;24.88;29.66;95271.66;4983473;28;20046;-40
2022/01/21 06:40:28;;;;;;;11.38;1.52;;;;;;;24.87;29.59;95275.38;4988721;28;20057;-40
2022/01/21 06:43:01;;;;;;;19.63;2.20;;;;;;;24.87;29.87;95285.25;4981581;28;20034;-41
2022/01/21 06:45:27;;;;;;;11.27;1.70;;;;;;;24.83;29.74;95289.47;4983220;28;20034;-43
2022/01/21 06:48:02;;;;;;;10.32;1.85;;;;;;;24.85;29.46;95288.16;4992723;28;20026;-41
2022/01/21 06:50:31;;;;;;;9.80;1.50;;;;;;;24.84;29.51;95291.09;4971067;28;20037;-41
2022/01/21 06:53:08;;;;;;;10.30;1.50;;;;;;;24.84;29.48;95294.53;4986135;28;20042;-41
2022/01/21 06:55:34;;;;;;;7.95;1.50;;;;;;;24.89;29.50;95289.22;4983474;28;20053;-42
2022/01/21 06:57:59;;;;;;;9.68;1.65;;;;;;;24.86;29.17;95295.06;4983446;28;20026;-41
2022/01/21 07:00:29;;;;;;;8.27;1.40;;;;;;;24.83;29.36;95287.63;5015669;28;20166;-41
2022/01/21 07:03:13;;;;;;;6.07;1.60;;;;;;;24.86;29.23;95297.72;4981238;28;20043;-41
2022/01/21 07:05:46;;;;;;;10.35;2.25;;;;;;;24.84;29.38;95299.06;4983452;28;20093;-41
2022/01/21 07:08:14;;;;;;;9.63;1.60;;;;;;;24.84;28.76;95297.19;4966297;28;20092;-41
2022/01/21 07:10:40;;;;;;;8.13;1.90;;;;;;;24.85;28.78;95308.66;4982222;28;20038;-41
2022/01/21 07:13:15;;;;;;;10.02;1.80;;;;;;;24.86;28.74;95311.03;4985434;28;20057;-41
2022/01/21 07:15:40;;;;;;;14.27;1.60;;;;;;;24.86;28.71;95318.22;4981299;28;20055;-41
2022/01/21 07:18:06;;;;;;;7.80;1.67;;;;;;;24.83;28.99;95321.41;4983794;28;20050;-41
2022/01/21 07:20:31;;;;;;;10.18;1.60;;;;;;;24.82;28.93;95331.25;4982946;28;20042;-41
2022/01/21 07:22:57;;;;;;;9.77;1.70;;;;;;;24.80;28.78;95338.69;4969676;28;20157;-41
2022/01/21 07:25:27;;;;;;;6.85;1.50;;;;;;;24.84;28.30;95338.97;4951909;28;20030;-41
2022/01/21 07:27:54;;;;;;;8.68;1.90;;;;;;;24.86;28.52;95342.94;4983154;28;20053;-41
2022/01/21 07:30:25;;;;;;;6.45;1.40;;;;;;;24.83;28.62;95350.66;4969000;28;20084;-41
2022/01/21 07:32:50;;;;;;;7.25;1.70;;;;;;;24.86;28.51;95342.94;4966103;28;20042;-41
2022/01/21 07:35:17;;;;;;;9.15;1.30;;;;;;;24.84;28.66;95345.06;4988514;28;20127;-41
2022/01/21 07:37:42;;;;;;;7.30;1.80;;;;;;;24.77;28.47;95347.22;4988532;28;20037;-41
2022/01/21 07:40:08;;;;;;;5.47;1.50;;;;;;;24.78;28.93;95359.44;4988808;28;20034;-41
2022/01/21 07:42:34;;;;;;;10.43;1.40;;;;;;;24.73;28.82;95354.94;4990570;28;20186;-41
2022/01/21 07:45:00;;;;;;;5.53;1.48;;;;;;;24.77;28.82;95353.34;4991017;28;20034;-41
2022/01/21 07:47:42;;;;;;;5.93;1.63;;;;;;;24.79;28.74;95363.72;5001162;28;20103;-41
2022/01/21 07:50:10;;;;;;;8.38;1.38;;;;;;;24.73;28.97;95362.91;4973478;28;20045;-41
2022/01/21 07:52:40;;;;;;;8.05;1.45;;;;;;;24.76;28.74;95365.03;4990861;28;20120;-41
2022/01/21 07:55:06;;;;;;;7.90;1.60;;;;;;;24.78;29.03;95373.53;4989986;28;20151;-40
2022/01/21 07:57:31;;;;;;;19.67;1.85;;;;;;;24.78;29.36;95383.38;5019385;28;20113;-41
2022/01/21 08:00:14;;;;;;;8.55;1.50;;;;;;;24.81;29.29;95380.22;4988408;28;20129;-41
2022/01/21 08:02:40;;;;;;;10.35;1.63;;;;;;;24.75;29.10;95382.06;4988886;28;20061;-41
2022/01/21 08:05:08;;;;;;;11.63;1.77;;;;;;;24.75;29.29;95384.72;4994048;28;20042;-41
2022/01/21 08:07:36;;;;;;;6.78;1.50;;;;;;;24.77;29.77;95374.59;5016876;28;20038;-41
2022/01/21 08:10:01;;;;;;;6.25;1.52;;;;;;;24.78;29.83;95376.19;4995900;28;20115;-41
2022/01/21 08:12:29;;;;;;;8.30;1.60;;;;;;;24.79;29.27;95377.00;4990654;28;20038;-41
2022/01/21 08:14:55;;;;;;;6.90;1.30;;;;;;;24.84;29.40;95370.88;4997949;28;20130;-41
2022/01/21 08:17:29;;;;;;;6.07;1.38;;;;;;;24.81;29.43;95366.09;4975718;28;20037;-41
2022/01/21 08:19:56;;;;;;;11.55;1.58;;;;;;;24.80;29.74;95359.19;4992152;28;20038;-41
2022/01/21 08:22:22;;;;;;;8.07;1.20;;;;;;;24.75;29.44;95357.28;4992379;28;20042;-41
2022/01/21 08:24:48;;;;;;;5.10;1.58;;;;;;;24.76;29.70;95353.59;5001791;28;20060;-41
2022/01/21 08:27:14;;;;;;;7.88;1.40;;;;;;;24.74;29.63;95343.22;4991134;28;20062;-41
2022/01/21 08:29:40;;;;;;;4.72;1.33;;;;;;;24.78;29.33;95346.16;4989467;28;20088;-41
2022/01/21 08:32:07;;;;;;;9.40;1.65;;;;;;;24.78;29.62;95349.59;4987794;28;20109;-41
2022/01/21 08:34:44;;;;;;;4.97;1.25;;;;;;;24.75;29.43;95349.31;4990464;28;20069;-41
2022/01/21 08:37:12;;;;;;;5.82;1.35;;;;;;;24.76;29.51;95348.28;4985122;28;20117;-41
2022/01/21 08:39:43;;;;;;;8.75;1.60;;;;;;;24.69;29.67;95345.84;4987318;28;20042;-41
2022/01/21 08:42:12;;;;;;;6.82;1.73;;;;;;;24.69;29.95;95342.41;4988660;28;20033;-41
2022/01/21 08:44:38;;;;;;;7.57;1.75;;;;;;;24.73;29.84;95349.59;4988238;28;20043;-41
2022/01/21 08:47:04;;;;;;;8.63;1.60;;;;;;;24.74;29.86;95348.53;4985035;28;20034;-41
2022/01/21 08:49:43;;;;;;;3.95;1.50;;;;;;;24.73;29.98;95351.44;4993121;28;20033;-41
2022/01/21 08:52:19;;;;;;;6.75;1.40;;;;;;;24.76;29.78;95353.59;4983855;28;20041;-41
2022/01/21 08:54:51;;;;;;;6.63;1.67;;;;;;;24.72;29.98;95352.53;4987189;28;20034;-41
2022/01/21 08:57:19;;;;;;;6.43;1.42;;;;;;;24.78;29.39;95352.25;4976656;28;20042;-41
2022/01/21 08:59:46;;;;;;;5.70;1.40;;;;;;;24.80;29.32;95359.97;4989958;28;20061;-41
2022/01/21 09:02:19;;;;;;;6.38;1.60;;;;;;;24.78;28.74;95364.75;4985857;28;20096;-41
2022/01/21 09:04:44;;;;;;;10.60;1.73;;;;;;;24.76;28.80;95358.91;4987389;28;20038;-41
2022/01/21 09:07:12;;;;;;;5.00;1.38;;;;;;;24.77;28.69;95357.88;5018693;28;20041;-41
2022/01/21 09:09:37;;;;;;;6.57;1.58;;;;;;;24.81;28.27;95364.25;4988167;28;20054;-41
2022/01/21 09:12:14;;;;;;;8.02;1.85;;;;;;;24.81;28.13;95366.91;4991691;28;20058;-41
2022/01/21 09:14:40;;;;;;;5.25;1.48;;;;;;;24.80;28.41;95365.28;4980261;28;20049;-41
2022/01/21 09:17:11;;;;;;;5.57;1.35;;;;;;;24.76;28.42;95358.91;4985063;28;20030;-41
2022/01/21 09:19:37;;;;;;;7.70;1.70;;;;;;;24.77;28.04;95373.81;4985799;28;20038;-41
2022/01/21 09:22:14;;;;;;;6.85;1.50;;;;;;;24.83;27.97;95369.28;4984807;28;20085;-40
2022/01/21 09:24:42;;;;;;;6.28;1.90;;;;;;;24.81;27.98;95369.56;4984552;28;20037;-41
2022/01/21 09:27:10;;;;;;;7.43;1.50;;;;;;;24.84;27.94;95368.22;4985205;28;20078;-41
2022/01/21 09:29:37;;;;;;;8.68;1.50;;;;;;;24.86;28.09;95369.56;4986694;28;20038;-41
2022/01/21 09:32:06;;;;;;;7.28;1.70;;;;;;;24.80;28.37;95381.25;4969409;28;20038;-41
2022/01/21 09:34:32;;;;;;;7.53;1.65;;;;;;;24.82;28.60;95384.44;4987890;28;20046;-41
2022/01/21 09:37:00;;;;;;;6.38;1.40;;;;;;;24.83;28.68;95396.69;4985365;28;20120;-41
2022/01/21 09:39:28;;;;;;;4.97;1.33;;;;;;;24.84;28.62;95384.97;4968780;28;20138;-41
2022/01/21 09:41:59;;;;;;;8.95;1.90;;;;;;;24.78;28.95;95384.19;4969573;28;20035;-41
2022/01/21 09:44:24;;;;;;;7.30;1.60;;;;;;;24.86;28.66;95379.41;4985941;28;20034;-41
2022/01/21 09:46:50;;;;;;;8.55;1.50;;;;;;;24.83;29.04;95377.25;5002566;28;20044;-41
2022/01/21 09:49:28;;;;;;;6.68;1.60;;;;;;;24.74;28.98;95382.31;4985279;28;20188;-41
2022/01/21 09:52:08;;;;;;;4.50;1.40;;;;;;;24.79;29.33;95387.66;4981625;28;20081;-41
2022/01/21 09:54:37;;;;;;;7.45;1.30;;;;;;;24.85;29.32;95391.13;4983160;28;20048;-40
2022/01/21 09:57:06;;;;;;;6.87;1.50;;;;;;;24.82;29.31;95400.41;4976166;28;20034;-41
2022/01/21 09:59:41;;;;;;;5.82;1.35;;;;;;;24.82;29.33;95403.06;4983117;28;20362;-41
2022/01/21 10:02:07;;;;;;;6.45;1.38;;;;;;;24.81;29.40;95401.50;4985724;28;20038;-41
2022/01/21 10:04:39;;;;;;;5.05;1.20;;;;;;;24.78;29.18;95407.31;4985903;28;20097;-41
2022/01/21 10:07:06;;;;;;;7.03;1.30;;;;;;;24.83;29.36;95404.69;4992278;28;20034;-41
2022/01/21 10:09:32;;;;;;;5.47;1.50;;;;;;;24.84;29.40;95405.47;4999294;28;20034;-42
2022/01/21 10:11:58;;;;;;;7.07;1.98;;;;;;;24.85;29.33;95407.88;4987284;28;20041;-41
2022/01/21 10:14:38;;;;;;;6.78;1.50;;;;;;;24.85;29.38;95405.22;4989839;28;20034;-41
2022/01/21 10:17:14;;;;;;;8.90;1.42;;;;;;;24.88;29.34;95411.88;4985278;28;20108;-41
2022/01/21 10:19:51;;;;;;;8.57;1.88;;;;;;;24.85;29.52;95409.75;4981549;28;20056;-40
2022/01/21 10:22:23;;;;;;;5.80;1.35;;;;;;;24.81;29.69;95408.66;4985862;28;20129;-41
2022/01/21 10:24:58;;;;;;;6.75;1.50;;;;;;;24.83;29.65;95399.38;4989360;28;20042;-41
2022/01/21 10:27:26;;;;;;;6.85;1.60;;;;;;;24.82;29.51;95400.41;5001507;28;20038;-41
2022/01/21 10:29:51;;;;;;;5.93;1.63;;;;;;;24.83;29.81;95390.56;4988709;28;20052;-40
2022/01/21 10:32:17;;;;;;;6.82;1.50;;;;;;;24.83;29.80;95401.19;4989373;28;20031;-41
2022/01/21 10:34:44;;;;;;;10.35;1.60;;;;;;;24.80;29.84;95397.22;4987407;28;20034;-41
2022/01/21 10:37:34;;;;;;;10.02;1.70;;;;;;;24.92;30.12;95403.09;5018325;28;20042;-41
2022/01/21 10:40:08;;;;;;;8.50;1.98;;;;;;;24.83;30.53;95406.53;4992928;28;20137;-41
2022/01/21 10:42:34;;;;;;;11.10;2.03;;;;;;;24.88;30.59;95415.31;4982838;28;20046;-41
2022/01/21 10:45:02;;;;;;;7.47;1.42;;;;;;;24.89;31.01;95411.59;4991272;28;20041;-41
2022/01/21 10:47:32;;;;;;;8.70;1.58;;;;;;;24.89;30.77;95410.81;4988802;28;20034;-41
2022/01/21 10:50:22;;;;;;;9.50;1.63;;;;;;;25.00;30.69;95414.28;4954211;28;20055;-41
2022/01/21 10:52:52;;;;;;;6.67;1.77;;;;;;;24.93;30.98;95414.53;4987516;28;20042;-42
2022/01/21 10:55:38;;;;;;;9.82;1.83;;;;;;;24.95;31.23;95407.09;4976267;28;20034;-41
2022/01/21 10:58:06;;;;;;;10.32;1.63;;;;;;;24.99;31.44;95413.47;4990827;28;20046;-41
2022/01/21 11:00:38;;;;;;;5.10;1.35;;;;;;;24.93;31.56;95404.69;4992123;28;20059;-41
2022/01/21 11:03:13;;;;;;;12.23;1.70;;;;;;;24.94;31.67;95408.97;4985138;28;20034;-41
2022/01/21 11:05:46;;;;;;;5.95;2.08;;;;;;;24.93;31.45;95401.25;4990829;28;20050;-41
2022/01/21 11:08:13;;;;;;;8.25;2.13;;;;;;;24.98;31.71;95415.34;4973889;28;20100;-41
2022/01/21 11:10:53;;;;;;;6.60;2.08;;;;;;;25.00;31.46;95408.94;4972207;28;20129;-41
2022/01/21 11:13:18;;;;;;;10.35;2.00;;;;;;;25.01;31.67;95413.22;4989513;28;20030;-41
2022/01/21 11:15:58;;;;;;;10.27;1.90;;;;;;;25.03;31.87;95411.88;4988927;28;20049;-40
2022/01/21 11:18:28;;;;;;;12.07;1.87;;;;;;;25.04;31.44;95404.72;4986693;28;20100;-41
2022/01/21 11:21:04;;;;;;;6.65;1.73;;;;;;;25.02;31.74;95412.16;5017857;28;20288;-41
2022/01/21 11:23:44;;;;;;;4.88;1.65;;;;;;;25.06;31.85;95411.38;4985817;28;20056;-41
2022/01/21 11:26:11;;;;;;;5.05;1.58;;;;;;;25.10;31.69;95408.97;4994490;28;20038;-41
2022/01/21 11:28:45;;;;;;;10.32;1.88;;;;;;;25.05;32.06;95398.31;4987269;28;20155;-41
2022/01/21 11:31:13;;;;;;;9.30;1.70;;;;;;;25.11;31.71;95413.22;5003373;28;20046;-42
2022/01/21 11:33:41;;;;;;;4.30;1.50;;;;;;;25.15;32.11;95415.09;4985637;28;20049;-41
2022/01/21 11:36:11;;;;;;;9.40;1.90;;;;;;;25.12;31.95;95409.50;4987424;28;20141;-41
2022/01/21 11:38:40;;;;;;;;;;;;;;;25.65;31.35;95412.75;4987222;28;20058;-42
2022/01/21 11:41:08;;;;;;;8.27;1.98;;;;;;;25.22;32.05;95409.50;4984255;28;20020;-42
2022/01/21 11:43:35;;;;;;;7.90;1.80;;;;;;;25.21;31.98;95409.78;4985702;28;20050;-42
2022/01/21 11:48:51;;;;;;;11.43;2.00;;;;;;;25.20;31.92;95414.31;4968407;28;20121;-41
2022/01/21 11:51:23;;;;;;;16.10;2.13;;;;;;;25.15;31.93;95409.78;4986330;28;20040;-41
2022/01/21 11:53:51;;;;;;;8.68;1.73;;;;;;;25.18;32.07;95405.78;4987084;28;20046;-41
2022/01/21 11:56:46;;;;;;;6.13;1.60;;;;;;;25.36;31.23;95407.16;4986705;28;20042;-40
2022/01/21 11:59:41;;;;;;;13.18;1.60;;;;;;;25.45;31.60;95402.09;5017916;28;20116;-41
2022/01/21 12:02:13;;;;;;;9.20;1.63;;;;;;;25.50;31.52;95394.13;5009669;28;20030;-42
2022/01/21 12:04:52;;;;;;;6.85;1.63;;;;;;;25.55;31.37;95396.75;4983373;28;20231;-41
2022/01/21 12:07:33;;;;;;;12.38;1.73;;;;;;;25.55;29.79;95402.91;4985806;28;20030;-41
2022/01/21 12:10:51;;;;;;;6.30;1.35;;;;;;;25.48;28.95;95391.72;4991297;28;20034;-41
2022/01/21 12:13:22;;;;;;;8.57;1.33;;;;;;;25.44;28.71;95388.00;4962912;28;20039;-40
2022/01/21 12:18:39;;;;;;;9.27;1.50;;;;;;;25.51;28.86;95393.03;4949217;28;20039;-41
2022/01/21 12:21:30;;;;;;;8.48;1.70;;;;;;;25.65;28.73;95399.41;4948901;28;20054;-41
2022/01/21 12:23:56;;;;;;;8.25;1.70;;;;;;;25.64;29.00;95392.47;4949256;28;20070;-41
2022/01/21 12:26:42;;;;;;;10.27;1.40;;;;;;;25.60;28.89;95386.09;4948412;28;20073;-41
2022/01/21 12:29:07;;;;;;;7.70;1.70;;;;;;;25.54;29.78;95389.84;4925118;29;20043;-41
2022/01/21 12:31:52;;;;;;;6.22;1.48;;;;;;;25.48;30.06;95380.25;4926754;29;20047;-41
2022/01/21 12:34:20;;;;;;;7.93;1.60;;;;;;;25.47;29.79;95391.97;4925597;29;20175;-41
2022/01/21 12:36:47;;;;;;;11.70;1.70;;;;;;;25.40;29.96;95392.25;4923695;29;20058;-41
2022/01/21 12:39:44;;;;;;;6.93;1.35;;;;;;;25.43;30.04;95396.25;4925796;29;20091;-41
2022/01/21 12:42:24;;;;;;;9.98;1.50;;;;;;;25.39;30.54;95400.50;4895384;29;20129;-41
2022/01/21 12:45:08;;;;;;;8.13;1.65;;;;;;;25.43;30.24;95401.56;4925675;29;20091;-41